Ns Sabina — 3EEP8 — position and weather

sailwx.info

Track history (hours):
 
Tides and Currents Weather Stations Pressure Air Temp Water Temp Dewpoint Dewpoint Depression Visibility Wind Speed Wind Dir Waves Ship Positions

Ns Sabina

Last reported at 2018-Feb-16 06:08 UTC. Time now 2018-Feb-25 04:16 UTC.
Position N 38°00' E 022°50'.
Warning: this ship's position is 8 days out of date.

Length 82 m; draft 5 m.

Type: Cargo ship. MMSI: 371763000.

Date/timePositionNaut miles runAvg speedWind from/ knotsBaromVisibWave heightAir tempDewpointWater temp
2018-Feb-16 06:08N 38°00' E 022°50'2 9.6
2018-Feb-16 05:57N 37°60' E 022°52'4 9.3
2018-Feb-16 05:30N 37°58' E 022°57'3 3.7
2018-Feb-16 04:34N 37°55' E 023°00'0 2.5
2018-Feb-16 04:30N 37°55' E 023°00'1 1.7
2018-Feb-16 04:00N 37°55' E 023°01'0 0.2
2018-Feb-16 03:27N 37°55' E 023°01'0 0.0
2018-Feb-16 03:00N 37°55' E 023°01'0 0.1
2018-Feb-16 02:30N 37°55' E 023°01'0 0.0
2018-Feb-16 01:56N 37°55' E 023°01'0 0.1
2018-Feb-16 01:29N 37°55' E 023°01'0 0.0
2018-Feb-16 00:59N 37°55' E 023°01'0 0.0
2018-Feb-16 00:29N 37°55' E 023°01'0 0.0
2018-Feb-15 23:58N 37°55' E 023°01'0 0.0
2018-Feb-15 23:28N 37°55' E 023°01'0 0.0
2018-Feb-15 22:55N 37°55' E 023°01'0 0.1
2018-Feb-15 22:28N 37°55' E 023°01'0 0.0
2018-Feb-15 21:58N 37°55' E 023°01'0 0.0
2018-Feb-15 21:30N 37°55' E 023°01'0 0.0
2018-Feb-15 20:54N 37°55' E 023°01'0 0.0
2018-Feb-15 20:30N 37°55' E 023°01'0 0.0
2018-Feb-15 20:00N 37°55' E 023°01'0 0.0
2018-Feb-15 19:29N 37°55' E 023°01'0 0.0
2018-Feb-15 18:56N 37°55' E 023°01'0 0.0
2018-Feb-15 18:29N 37°55' E 023°01'0 0.0
2018-Feb-15 17:59N 37°55' E 023°01'0 0.2
2018-Feb-15 17:30N 37°55' E 023°01'4 7.1
2018-Feb-15 17:00N 37°53' E 023°05'5 9.3
2018-Feb-15 16:30N 37°53' E 023°11'5 9.8
2018-Feb-15 16:00N 37°52' E 023°17'5 9.7
2018-Feb-15 15:30N 37°51' E 023°23'5 9.6
2018-Feb-15 15:00N 37°50' E 023°29'5 9.2
2018-Feb-15 14:30N 37°50' E 023°35'4 8.0
2018-Feb-15 14:00N 37°49' E 023°40'5 9.2
2018-Feb-15 13:30N 37°45' E 023°43'  
2018-Feb-08 01:29N 44°06' E 028°39'0 0.0
2018-Feb-08 00:56N 44°06' E 028°39'0 0.0
2018-Feb-08 00:29N 44°06' E 028°39'0 0.0
2018-Feb-07 23:59N 44°06' E 028°39'0 0.0
2018-Feb-07 23:29N 44°06' E 028°39'0 0.0
2018-Feb-07 22:59N 44°06' E 028°39'0 0.0
2018-Feb-07 22:28N 44°06' E 028°39'0 0.0
2018-Feb-07 21:58N 44°06' E 028°39'0 0.0
2018-Feb-07 21:25N 44°06' E 028°39'0 0.0
2018-Feb-07 09:24N 44°06' E 028°39'0 0.0
2018-Feb-07 08:29N 44°06' E 028°39'0 0.0
2018-Feb-07 07:41N 44°06' E 028°39'0 0.0
2018-Feb-07 07:23N 44°06' E 028°39'0 0.0
2018-Feb-07 06:59N 44°06' E 028°39'0 0.0
2018-Feb-07 06:29N 44°06' E 028°39'0 0.0
2018-Feb-07 05:55N 44°06' E 028°39'0 0.0
2018-Feb-07 05:22N 44°06' E 028°39'0 0.0
2018-Feb-07 04:49N 44°06' E 028°39'0 0.0
2018-Feb-07 04:16N 44°06' E 028°39'0 0.0
2018-Feb-07 03:58N 44°06' E 028°39'0 0.0
2018-Feb-07 03:27N 44°06' E 028°39'0 0.0
2018-Feb-07 03:00N 44°06' E 028°39'0 0.0
2018-Feb-07 02:24N 44°06' E 028°39'0 0.0
2018-Feb-07 01:57N 44°06' E 028°39'0 0.0
2018-Feb-07 01:29N 44°06' E 028°39'0 0.0
2018-Feb-07 00:59N 44°06' E 028°39'0 0.0
2018-Feb-07 00:26N 44°06' E 028°39'0 0.0
2018-Feb-06 23:59N 44°06' E 028°39'0 0.0
2018-Feb-06 23:29N 44°06' E 028°39'0 0.0
2018-Feb-06 22:58N 44°06' E 028°39'0 0.0
2018-Feb-06 22:28N 44°06' E 028°39'0 0.0
2018-Feb-06 21:58N 44°06' E 028°39'0 0.0
2018-Feb-06 21:28N 44°06' E 028°39'0 0.0
2018-Feb-06 20:57N 44°06' E 028°39'0 0.0
2018-Feb-06 20:27N 44°06' E 028°39'0 0.0
2018-Feb-06 20:00N 44°06' E 028°39'0 0.0
2018-Feb-06 19:21N 44°06' E 028°39'0 0.1
2018-Feb-06 19:00N 44°06' E 028°39'0 0.0
2018-Feb-06 18:29N 44°06' E 028°39'0 0.0
2018-Feb-06 17:53N 44°06' E 028°39'0 0.0
2018-Feb-06 17:29N 44°06' E 028°39'0 0.0
2018-Feb-06 14:49N 44°06' E 028°39'0 0.0
2018-Feb-06 14:19N 44°06' E 028°39'0 0.0
2018-Feb-06 13:00N 44°06' E 028°39'0 0.0
2018-Feb-06 12:24N 44°06' E 028°39'0 0.0
2018-Feb-06 11:23N 44°06' E 028°39'0 0.0
2018-Feb-06 09:56N 44°06' E 028°39'0 0.0
2018-Feb-06 09:28N 44°06' E 028°39'0 0.0
2018-Feb-06 08:58N 44°06' E 028°39'0 0.0
2018-Feb-06 08:28N 44°06' E 028°39'0 0.0
2018-Feb-06 07:55N 44°06' E 028°39'0 0.0
2018-Feb-06 07:13N 44°06' E 028°39'0 0.0
2018-Feb-06 06:51N 44°06' E 028°39'0 0.0
2018-Feb-06 06:30N 44°06' E 028°39'  
Track history (hours):
 
Tides and Currents Weather Stations Pressure Air Temp Water Temp Dewpoint Dewpoint Depression Visibility Wind Speed Wind Dir Waves Ship Positions

Ns Sabina

Last reported at 2018-Feb-16 06:08 UTC. Time now 2018-Feb-25 04:16 UTC.
Position N 38°00' E 022°50'.
Warning: this ship's position is 8 days out of date.

Length 82 m; draft 5 m.

Type: Cargo ship. MMSI: 371763000.

Date/timePositionNaut miles runAvg speedWind from/ knotsBaromVisibWave heightAir tempDewpointWater temp
2018-Feb-16 06:08N 38°00' E 022°50'2 9.6
2018-Feb-16 05:57N 37°60' E 022°52'4 9.3
2018-Feb-16 05:30N 37°58' E 022°57'3 3.7
2018-Feb-16 04:34N 37°55' E 023°00'0 2.5
2018-Feb-16 04:30N 37°55' E 023°00'1 1.7
2018-Feb-16 04:00N 37°55' E 023°01'0 0.2
2018-Feb-16 03:27N 37°55' E 023°01'0 0.0
2018-Feb-16 03:00N 37°55' E 023°01'0 0.1
2018-Feb-16 02:30N 37°55' E 023°01'0 0.0
2018-Feb-16 01:56N 37°55' E 023°01'0 0.1
2018-Feb-16 01:29N 37°55' E 023°01'0 0.0
2018-Feb-16 00:59N 37°55' E 023°01'0 0.0
2018-Feb-16 00:29N 37°55' E 023°01'0 0.0
2018-Feb-15 23:58N 37°55' E 023°01'0 0.0
2018-Feb-15 23:28N 37°55' E 023°01'0 0.0
2018-Feb-15 22:55N 37°55' E 023°01'0 0.1
2018-Feb-15 22:28N 37°55' E 023°01'0 0.0
2018-Feb-15 21:58N 37°55' E 023°01'0 0.0
2018-Feb-15 21:30N 37°55' E 023°01'0 0.0
2018-Feb-15 20:54N 37°55' E 023°01'0 0.0
2018-Feb-15 20:30N 37°55' E 023°01'0 0.0
2018-Feb-15 20:00N 37°55' E 023°01'0 0.0
2018-Feb-15 19:29N 37°55' E 023°01'0 0.0
2018-Feb-15 18:56N 37°55' E 023°01'0 0.0
2018-Feb-15 18:29N 37°55' E 023°01'0 0.0
2018-Feb-15 17:59N 37°55' E 023°01'0 0.2
2018-Feb-15 17:30N 37°55' E 023°01'4 7.1
2018-Feb-15 17:00N 37°53' E 023°05'5 9.3
2018-Feb-15 16:30N 37°53' E 023°11'5 9.8
2018-Feb-15 16:00N 37°52' E 023°17'5 9.7
2018-Feb-15 15:30N 37°51' E 023°23'5 9.6
2018-Feb-15 15:00N 37°50' E 023°29'5 9.2
2018-Feb-15 14:30N 37°50' E 023°35'4 8.0
2018-Feb-15 14:00N 37°49' E 023°40'5 9.2
2018-Feb-15 13:30N 37°45' E 023°43'  
2018-Feb-08 01:29N 44°06' E 028°39'0 0.0
2018-Feb-08 00:56N 44°06' E 028°39'0 0.0
2018-Feb-08 00:29N 44°06' E 028°39'0 0.0
2018-Feb-07 23:59N 44°06' E 028°39'0 0.0
2018-Feb-07 23:29N 44°06' E 028°39'0 0.0
2018-Feb-07 22:59N 44°06' E 028°39'0 0.0
2018-Feb-07 22:28N 44°06' E 028°39'0 0.0
2018-Feb-07 21:58N 44°06' E 028°39'0 0.0
2018-Feb-07 21:25N 44°06' E 028°39'0 0.0
2018-Feb-07 09:24N 44°06' E 028°39'0 0.0
2018-Feb-07 08:29N 44°06' E 028°39'0 0.0
2018-Feb-07 07:41N 44°06' E 028°39'0 0.0
2018-Feb-07 07:23N 44°06' E 028°39'0 0.0
2018-Feb-07 06:59N 44°06' E 028°39'0 0.0
2018-Feb-07 06:29N 44°06' E 028°39'0 0.0
2018-Feb-07 05:55N 44°06' E 028°39'0 0.0
2018-Feb-07 05:22N 44°06' E 028°39'0 0.0
2018-Feb-07 04:49N 44°06' E 028°39'0 0.0
2018-Feb-07 04:16N 44°06' E 028°39'0 0.0
2018-Feb-07 03:58N 44°06' E 028°39'0 0.0
2018-Feb-07 03:27N 44°06' E 028°39'0 0.0
2018-Feb-07 03:00N 44°06' E 028°39'0 0.0
2018-Feb-07 02:24N 44°06' E 028°39'0 0.0
2018-Feb-07 01:57N 44°06' E 028°39'0 0.0
2018-Feb-07 01:29N 44°06' E 028°39'0 0.0
2018-Feb-07 00:59N 44°06' E 028°39'0 0.0
2018-Feb-07 00:26N 44°06' E 028°39'0 0.0
2018-Feb-06 23:59N 44°06' E 028°39'0 0.0
2018-Feb-06 23:29N 44°06' E 028°39'0 0.0
2018-Feb-06 22:58N 44°06' E 028°39'0 0.0
2018-Feb-06 22:28N 44°06' E 028°39'0 0.0
2018-Feb-06 21:58N 44°06' E 028°39'0 0.0
2018-Feb-06 21:28N 44°06' E 028°39'0 0.0
2018-Feb-06 20:57N 44°06' E 028°39'0 0.0
2018-Feb-06 20:27N 44°06' E 028°39'0 0.0
2018-Feb-06 20:00N 44°06' E 028°39'0 0.0
2018-Feb-06 19:21N 44°06' E 028°39'0 0.1
2018-Feb-06 19:00N 44°06' E 028°39'0 0.0
2018-Feb-06 18:29N 44°06' E 028°39'0 0.0
2018-Feb-06 17:53N 44°06' E 028°39'0 0.0
2018-Feb-06 17:29N 44°06' E 028°39'0 0.0
2018-Feb-06 14:49N 44°06' E 028°39'0 0.0
2018-Feb-06 14:19N 44°06' E 028°39'0 0.0
2018-Feb-06 13:00N 44°06' E 028°39'0 0.0
2018-Feb-06 12:24N 44°06' E 028°39'0 0.0
2018-Feb-06 11:23N 44°06' E 028°39'0 0.0
2018-Feb-06 09:56N 44°06' E 028°39'0 0.0
2018-Feb-06 09:28N 44°06' E 028°39'0 0.0
2018-Feb-06 08:58N 44°06' E 028°39'0 0.0
2018-Feb-06 08:28N 44°06' E 028°39'0 0.0
2018-Feb-06 07:55N 44°06' E 028°39'0 0.0
2018-Feb-06 07:13N 44°06' E 028°39'0 0.0
2018-Feb-06 06:51N 44°06' E 028°39'0 0.0
2018-Feb-06 06:30N 44°06' E 028°39'  

Dump ship's entire track history